sensor_id;sensor_type;location;lat;lon;timestamp;temperature;humidity
19930;DHT22;10127;47.780;9.606;2023-09-19T00:01:07;16.50;99.90
19930;DHT22;10127;47.780;9.606;2023-09-19T00:03:36;16.60;99.90
19930;DHT22;10127;47.780;9.606;2023-09-19T00:06:03;16.60;99.90
19930;DHT22;10127;47.780;9.606;2023-09-19T00:08:30;16.60;99.90
19930;DHT22;10127;47.780;9.606;2023-09-19T00:10:56;16.60;99.90
19930;DHT22;10127;47.780;9.606;2023-09-19T00:13:24;16.60;99.90
19930;DHT22;10127;47.780;9.606;2023-09-19T00:15:50;16.60;99.90
19930;DHT22;10127;47.780;9.606;2023-09-19T00:18:19;16.60;99.90
19930;DHT22;10127;47.780;9.606;2023-09-19T00:20:49;16.70;99.90
19930;DHT22;10127;47.780;9.606;2023-09-19T00:23:17;16.70;99.90
19930;DHT22;10127;47.780;9.606;2023-09-19T00:25:42;16.70;99.90
19930;DHT22;10127;47.780;9.606;2023-09-19T00:28:08;16.80;99.90
19930;DHT22;10127;47.780;9.606;2023-09-19T00:30:35;16.80;99.90
19930;DHT22;10127;47.780;9.606;2023-09-19T00:33:01;16.70;99.90
19930;DHT22;10127;47.780;9.606;2023-09-19T00:35:31;16.60;99.90
19930;DHT22;10127;47.780;9.606;2023-09-19T00:37:56;16.70;99.90
19930;DHT22;10127;47.780;9.606;2023-09-19T00:40:22;16.60;99.90
19930;DHT22;10127;47.780;9.606;2023-09-19T00:42:48;16.60;99.90
19930;DHT22;10127;47.780;9.606;2023-09-19T00:45:16;16.60;99.90
19930;DHT22;10127;47.780;9.606;2023-09-19T00:47:47;16.60;99.90
19930;DHT22;10127;47.780;9.606;2023-09-19T00:50:21;16.60;99.90
19930;DHT22;10127;47.780;9.606;2023-09-19T00:52:54;16.60;99.90
19930;DHT22;10127;47.780;9.606;2023-09-19T00:55:24;16.60;99.90
19930;DHT22;10127;47.780;9.606;2023-09-19T00:57:50;16.60;99.90
19930;DHT22;10127;47.780;9.606;2023-09-19T01:00:16;16.60;99.90
19930;DHT22;10127;47.780;9.606;2023-09-19T01:02:45;16.70;99.90
19930;DHT22;10127;47.780;9.606;2023-09-19T01:05:11;16.70;99.90
19930;DHT22;10127;47.780;9.606;2023-09-19T01:07:38;16.70;99.90
19930;DHT22;10127;47.780;9.606;2023-09-19T01:10:08;16.70;99.90
19930;DHT22;10127;47.780;9.606;2023-09-19T01:16:10;16.80;99.90
19930;DHT22;10127;47.780;9.606;2023-09-19T01:21:31;16.90;99.90
19930;DHT22;10127;47.780;9.606;2023-09-19T01:27:25;16.90;99.90
19930;DHT22;10127;47.780;9.606;2023-09-19T01:29:51;16.90;99.90
19930;DHT22;10127;47.780;9.606;2023-09-19T01:32:19;17.00;99.90
19930;DHT22;10127;47.780;9.606;2023-09-19T01:34:48;17.00;99.90
19930;DHT22;10127;47.780;9.606;2023-09-19T01:37:16;16.90;99.90
19930;DHT22;10127;47.780;9.606;2023-09-19T01:39:51;16.90;99.90
19930;DHT22;10127;47.780;9.606;2023-09-19T01:45:12;16.80;99.90
19930;DHT22;10127;47.780;9.606;2023-09-19T01:47:48;16.80;99.90
19930;DHT22;10127;47.780;9.606;2023-09-19T01:50:29;16.80;99.90
19930;DHT22;10127;47.780;9.606;2023-09-19T01:53:14;16.80;99.90
19930;DHT22;10127;47.780;9.606;2023-09-19T01:55:47;16.80;99.90
19930;DHT22;10127;47.780;9.606;2023-09-19T01:59:06;16.80;99.90
19930;DHT22;10127;47.780;9.606;2023-09-19T02:01:12;16.80;99.90
19930;DHT22;10127;47.780;9.606;2023-09-19T02:03:41;16.90;99.90
19930;DHT22;10127;47.780;9.606;2023-09-19T02:06:07;16.90;99.90
19930;DHT22;10127;47.780;9.606;2023-09-19T02:08:36;17.00;99.90
19930;DHT22;10127;47.780;9.606;2023-09-19T02:11:02;17.00;99.90
19930;DHT22;10127;47.780;9.606;2023-09-19T02:13:28;17.00;99.90
19930;DHT22;10127;47.780;9.606;2023-09-19T02:15:56;17.10;99.90
19930;DHT22;10127;47.780;9.606;2023-09-19T02:18:21;17.10;99.90
19930;DHT22;10127;47.780;9.606;2023-09-19T02:20:47;17.10;99.90
19930;DHT22;10127;47.780;9.606;2023-09-19T02:23:13;17.10;99.90
19930;DHT22;10127;47.780;9.606;2023-09-19T02:25:41;17.10;99.90
19930;DHT22;10127;47.780;9.606;2023-09-19T02:28:06;17.10;99.90
19930;DHT22;10127;47.780;9.606;2023-09-19T02:30:34;17.10;99.90
19930;DHT22;10127;47.780;9.606;2023-09-19T02:33:00;17.10;99.90
19930;DHT22;10127;47.780;9.606;2023-09-19T02:35:31;17.10;99.90
19930;DHT22;10127;47.780;9.606;2023-09-19T02:38:01;17.10;99.90
19930;DHT22;10127;47.780;9.606;2023-09-19T02:40:31;17.10;99.90
19930;DHT22;10127;47.780;9.606;2023-09-19T02:42:57;17.10;99.90
19930;DHT22;10127;47.780;9.606;2023-09-19T02:45:24;17.10;99.90
19930;DHT22;10127;47.780;9.606;2023-09-19T02:47:50;17.10;99.90
19930;DHT22;10127;47.780;9.606;2023-09-19T02:50:16;17.10;99.90
19930;DHT22;10127;47.780;9.606;2023-09-19T02:52:43;17.10;99.90
19930;DHT22;10127;47.780;9.606;2023-09-19T02:55:11;17.10;99.90
19930;DHT22;10127;47.780;9.606;2023-09-19T02:57:38;17.20;99.90
19930;DHT22;10127;47.780;9.606;2023-09-19T03:00:07;17.20;99.90
19930;DHT22;10127;47.780;9.606;2023-09-19T03:02:35;17.20;99.90
19930;DHT22;10127;47.780;9.606;2023-09-19T03:05:01;17.20;99.90
19930;DHT22;10127;47.780;9.606;2023-09-19T03:07:28;17.20;99.90
19930;DHT22;10127;47.780;9.606;2023-09-19T03:09:53;17.20;99.90
19930;DHT22;10127;47.780;9.606;2023-09-19T03:12:20;17.20;99.90
19930;DHT22;10127;47.780;9.606;2023-09-19T03:14:46;17.10;99.90
19930;DHT22;10127;47.780;9.606;2023-09-19T03:17:11;17.10;99.90
19930;DHT22;10127;47.780;9.606;2023-09-19T03:19:39;17.10;99.90
19930;DHT22;10127;47.780;9.606;2023-09-19T03:22:05;17.10;99.90
19930;DHT22;10127;47.780;9.606;2023-09-19T03:24:31;17.20;99.90
19930;DHT22;10127;47.780;9.606;2023-09-19T03:26:58;17.20;99.90
19930;DHT22;10127;47.780;9.606;2023-09-19T03:29:24;17.20;99.90
19930;DHT22;10127;47.780;9.606;2023-09-19T03:31:50;17.20;99.90
19930;DHT22;10127;47.780;9.606;2023-09-19T03:34:16;17.20;99.90
19930;DHT22;10127;47.780;9.606;2023-09-19T03:36:42;17.20;99.90
19930;DHT22;10127;47.780;9.606;2023-09-19T03:39:08;17.20;99.90
19930;DHT22;10127;47.780;9.606;2023-09-19T03:41:33;17.20;99.90
19930;DHT22;10127;47.780;9.606;2023-09-19T03:44:01;17.20;99.90
19930;DHT22;10127;47.780;9.606;2023-09-19T03:46:28;17.20;99.90
19930;DHT22;10127;47.780;9.606;2023-09-19T03:48:53;17.20;99.90
19930;DHT22;10127;47.780;9.606;2023-09-19T03:51:20;17.20;99.90
19930;DHT22;10127;47.780;9.606;2023-09-19T03:53:46;17.20;99.90
19930;DHT22;10127;47.780;9.606;2023-09-19T03:56:11;17.20;99.90
19930;DHT22;10127;47.780;9.606;2023-09-19T03:58:37;17.20;99.90
19930;DHT22;10127;47.780;9.606;2023-09-19T04:01:05;17.20;99.90
19930;DHT22;10127;47.780;9.606;2023-09-19T04:03:33;17.10;99.90
19930;DHT22;10127;47.780;9.606;2023-09-19T04:06:15;17.10;99.90
19930;DHT22;10127;47.780;9.606;2023-09-19T04:08:42;17.10;99.90
19930;DHT22;10127;47.780;9.606;2023-09-19T04:11:08;17.10;99.90
19930;DHT22;10127;47.780;9.606;2023-09-19T04:13:34;17.10;99.90
19930;DHT22;10127;47.780;9.606;2023-09-19T04:16:00;17.10;99.90
19930;DHT22;10127;47.780;9.606;2023-09-19T04:18:26;17.00;99.90
19930;DHT22;10127;47.780;9.606;2023-09-19T04:20:52;17.00;99.90
19930;DHT22;10127;47.780;9.606;2023-09-19T04:23:18;17.00;99.90
19930;DHT22;10127;47.780;9.606;2023-09-19T04:25:46;17.10;99.90
19930;DHT22;10127;47.780;9.606;2023-09-19T04:28:12;17.10;99.90
19930;DHT22;10127;47.780;9.606;2023-09-19T04:30:38;17.10;99.90
19930;DHT22;10127;47.780;9.606;2023-09-19T04:33:07;17.10;99.90
19930;DHT22;10127;47.780;9.606;2023-09-19T04:35:33;17.10;99.90
19930;DHT22;10127;47.780;9.606;2023-09-19T04:38:05;17.10;99.90
19930;DHT22;10127;47.780;9.606;2023-09-19T04:40:32;17.10;99.90
19930;DHT22;10127;47.780;9.606;2023-09-19T04:42:59;17.10;99.90
19930;DHT22;10127;47.780;9.606;2023-09-19T04:45:33;17.20;99.90
19930;DHT22;10127;47.780;9.606;2023-09-19T04:47:58;17.20;99.90
19930;DHT22;10127;47.780;9.606;2023-09-19T04:50:24;17.20;99.90
19930;DHT22;10127;47.780;9.606;2023-09-19T04:52:53;17.30;99.90
19930;DHT22;10127;47.780;9.606;2023-09-19T04:55:19;17.30;99.90
19930;DHT22;10127;47.780;9.606;2023-09-19T04:57:46;17.30;99.90
19930;DHT22;10127;47.780;9.606;2023-09-19T05:00:14;17.40;99.90
19930;DHT22;10127;47.780;9.606;2023-09-19T05:02:41;17.30;99.90
19930;DHT22;10127;47.780;9.606;2023-09-19T05:05:08;17.30;99.90
19930;DHT22;10127;47.780;9.606;2023-09-19T05:07:35;17.40;99.90
19930;DHT22;10127;47.780;9.606;2023-09-19T05:10:01;17.30;99.90
19930;DHT22;10127;47.780;9.606;2023-09-19T05:12:34;17.30;99.90
19930;DHT22;10127;47.780;9.606;2023-09-19T05:15:07;17.30;99.90
19930;DHT22;10127;47.780;9.606;2023-09-19T05:17:50;17.30;99.90
19930;DHT22;10127;47.780;9.606;2023-09-19T05:20:23;17.40;99.90
19930;DHT22;10127;47.780;9.606;2023-09-19T05:23:02;17.40;99.90
19930;DHT22;10127;47.780;9.606;2023-09-19T05:25:32;17.40;99.90
19930;DHT22;10127;47.780;9.606;2023-09-19T05:27:58;17.40;99.90
19930;DHT22;10127;47.780;9.606;2023-09-19T05:30:25;17.40;99.90
19930;DHT22;10127;47.780;9.606;2023-09-19T05:32:53;17.40;99.90
19930;DHT22;10127;47.780;9.606;2023-09-19T05:35:19;17.40;99.90
19930;DHT22;10127;47.780;9.606;2023-09-19T05:37:47;17.40;99.90
19930;DHT22;10127;47.780;9.606;2023-09-19T05:40:14;17.50;99.90
19930;DHT22;10127;47.780;9.606;2023-09-19T05:42:41;17.50;99.90
19930;DHT22;10127;47.780;9.606;2023-09-19T05:45:09;17.50;99.90
19930;DHT22;10127;47.780;9.606;2023-09-19T05:47:39;17.60;99.90
19930;DHT22;10127;47.780;9.606;2023-09-19T05:50:07;17.60;99.90
19930;DHT22;10127;47.780;9.606;2023-09-19T05:52:35;17.60;99.90
19930;DHT22;10127;47.780;9.606;2023-09-19T05:55:00;17.70;99.90
19930;DHT22;10127;47.780;9.606;2023-09-19T05:57:26;17.70;99.90
19930;DHT22;10127;47.780;9.606;2023-09-19T05:59:53;17.80;99.90
19930;DHT22;10127;47.780;9.606;2023-09-19T06:02:18;17.80;99.90
19930;DHT22;10127;47.780;9.606;2023-09-19T06:04:45;17.70;99.90
19930;DHT22;10127;47.780;9.606;2023-09-19T06:07:10;17.80;99.90
19930;DHT22;10127;47.780;9.606;2023-09-19T06:09:37;17.80;99.90
19930;DHT22;10127;47.780;9.606;2023-09-19T06:12:04;17.80;99.90
19930;DHT22;10127;47.780;9.606;2023-09-19T06:14:30;17.80;99.90
19930;DHT22;10127;47.780;9.606;2023-09-19T06:16:56;17.80;99.90
19930;DHT22;10127;47.780;9.606;2023-09-19T06:19:23;17.90;99.90
19930;DHT22;10127;47.780;9.606;2023-09-19T06:21:52;17.90;99.90
19930;DHT22;10127;47.780;9.606;2023-09-19T06:24:19;17.90;99.90
19930;DHT22;10127;47.780;9.606;2023-09-19T06:26:45;17.90;99.90
19930;DHT22;10127;47.780;9.606;2023-09-19T06:29:11;18.00;99.90
19930;DHT22;10127;47.780;9.606;2023-09-19T06:31:39;18.00;99.90
19930;DHT22;10127;47.780;9.606;2023-09-19T06:34:04;18.10;99.90
19930;DHT22;10127;47.780;9.606;2023-09-19T06:36:30;18.10;99.90
19930;DHT22;10127;47.780;9.606;2023-09-19T06:38:55;18.10;99.90
19930;DHT22;10127;47.780;9.606;2023-09-19T06:41:21;18.30;99.90
19930;DHT22;10127;47.780;9.606;2023-09-19T06:43:50;18.30;99.90
19930;DHT22;10127;47.780;9.606;2023-09-19T06:46:19;18.40;99.90
19930;DHT22;10127;47.780;9.606;2023-09-19T06:48:44;18.50;99.90
19930;DHT22;10127;47.780;9.606;2023-09-19T06:51:13;18.60;99.90
19930;DHT22;10127;47.780;9.606;2023-09-19T06:53:41;18.60;99.90
19930;DHT22;10127;47.780;9.606;2023-09-19T06:56:07;18.60;99.90
19930;DHT22;10127;47.780;9.606;2023-09-19T06:58:33;18.60;99.90
19930;DHT22;10127;47.780;9.606;2023-09-19T07:00:58;18.50;99.90
19930;DHT22;10127;47.780;9.606;2023-09-19T07:03:24;18.50;99.90
19930;DHT22;10127;47.780;9.606;2023-09-19T07:05:52;18.40;99.90
19930;DHT22;10127;47.780;9.606;2023-09-19T07:08:18;18.40;99.90
19930;DHT22;10127;47.780;9.606;2023-09-19T07:10:45;18.40;99.90
19930;DHT22;10127;47.780;9.606;2023-09-19T07:13:14;18.40;99.90
19930;DHT22;10127;47.780;9.606;2023-09-19T07:15:43;18.40;99.90
19930;DHT22;10127;47.780;9.606;2023-09-19T07:18:13;18.40;99.90
19930;DHT22;10127;47.780;9.606;2023-09-19T07:20:40;18.40;99.90
19930;DHT22;10127;47.780;9.606;2023-09-19T07:23:11;18.40;99.90
19930;DHT22;10127;47.780;9.606;2023-09-19T07:25:39;18.50;99.90
19930;DHT22;10127;47.780;9.606;2023-09-19T07:28:05;18.50;99.90
19930;DHT22;10127;47.780;9.606;2023-09-19T07:30:31;18.50;99.90
19930;DHT22;10127;47.780;9.606;2023-09-19T07:32:57;18.40;99.90
19930;DHT22;10127;47.780;9.606;2023-09-19T07:35:23;18.40;99.90
19930;DHT22;10127;47.780;9.606;2023-09-19T07:37:49;18.40;99.90
19930;DHT22;10127;47.780;9.606;2023-09-19T07:40:15;18.40;99.90
19930;DHT22;10127;47.780;9.606;2023-09-19T07:42:41;18.40;99.90
19930;DHT22;10127;47.780;9.606;2023-09-19T07:45:10;18.50;99.90
19930;DHT22;10127;47.780;9.606;2023-09-19T07:47:43;18.50;99.90
19930;DHT22;10127;47.780;9.606;2023-09-19T07:50:09;18.60;99.90
19930;DHT22;10127;47.780;9.606;2023-09-19T07:52:35;18.60;99.90
19930;DHT22;10127;47.780;9.606;2023-09-19T07:55:00;18.60;99.90
19930;DHT22;10127;47.780;9.606;2023-09-19T07:57:31;18.60;99.90
19930;DHT22;10127;47.780;9.606;2023-09-19T07:59:59;18.60;99.90
19930;DHT22;10127;47.780;9.606;2023-09-19T08:02:25;18.60;99.90
19930;DHT22;10127;47.780;9.606;2023-09-19T08:04:51;18.60;99.90
19930;DHT22;10127;47.780;9.606;2023-09-19T08:07:17;18.60;99.90
19930;DHT22;10127;47.780;9.606;2023-09-19T08:09:43;18.60;99.90
19930;DHT22;10127;47.780;9.606;2023-09-19T08:12:14;18.70;99.90
19930;DHT22;10127;47.780;9.606;2023-09-19T08:14:40;18.80;99.90
19930;DHT22;10127;47.780;9.606;2023-09-19T08:17:08;18.80;99.90
19930;DHT22;10127;47.780;9.606;2023-09-19T08:19:34;18.70;99.90
19930;DHT22;10127;47.780;9.606;2023-09-19T08:22:02;18.80;99.90
19930;DHT22;10127;47.780;9.606;2023-09-19T08:24:29;18.80;99.90
19930;DHT22;10127;47.780;9.606;2023-09-19T08:26:56;18.80;99.90
19930;DHT22;10127;47.780;9.606;2023-09-19T08:29:23;18.80;99.90
19930;DHT22;10127;47.780;9.606;2023-09-19T08:31:56;19.00;99.90
19930;DHT22;10127;47.780;9.606;2023-09-19T08:34:23;19.10;99.90
19930;DHT22;10127;47.780;9.606;2023-09-19T08:36:52;19.20;99.90
19930;DHT22;10127;47.780;9.606;2023-09-19T08:39:22;19.30;99.90
19930;DHT22;10127;47.780;9.606;2023-09-19T08:41:47;19.30;99.90
19930;DHT22;10127;47.780;9.606;2023-09-19T08:44:13;19.30;99.90
19930;DHT22;10127;47.780;9.606;2023-09-19T08:46:41;19.20;99.90
19930;DHT22;10127;47.780;9.606;2023-09-19T08:49:45;19.20;99.90
19930;DHT22;10127;47.780;9.606;2023-09-19T08:52:41;19.30;99.90
19930;DHT22;10127;47.780;9.606;2023-09-19T08:55:07;19.40;99.90
19930;DHT22;10127;47.780;9.606;2023-09-19T08:57:37;19.70;99.60
19930;DHT22;10127;47.780;9.606;2023-09-19T09:00:08;19.90;99.50
19930;DHT22;10127;47.780;9.606;2023-09-19T09:02:38;19.90;99.20
19930;DHT22;10127;47.780;9.606;2023-09-19T09:05:11;19.90;99.20
19930;DHT22;10127;47.780;9.606;2023-09-19T09:07:38;20.10;98.80
19930;DHT22;10127;47.780;9.606;2023-09-19T09:10:05;20.30;99.00
19930;DHT22;10127;47.780;9.606;2023-09-19T09:12:31;20.40;98.70
19930;DHT22;10127;47.780;9.606;2023-09-19T09:14:57;20.50;98.30
19930;DHT22;10127;47.780;9.606;2023-09-19T09:17:26;20.60;98.30
19930;DHT22;10127;47.780;9.606;2023-09-19T09:19:54;20.80;98.00
19930;DHT22;10127;47.780;9.606;2023-09-19T09:22:20;20.70;97.80
19930;DHT22;10127;47.780;9.606;2023-09-19T09:24:59;20.60;97.80
19930;DHT22;10127;47.780;9.606;2023-09-19T09:27:27;20.20;98.60
19930;DHT22;10127;47.780;9.606;2023-09-19T09:29:53;20.20;98.60
19930;DHT22;10127;47.780;9.606;2023-09-19T09:32:31;20.20;98.40
19930;DHT22;10127;47.780;9.606;2023-09-19T09:35:06;20.10;98.70
19930;DHT22;10127;47.780;9.606;2023-09-19T09:37:34;20.00;99.20
19930;DHT22;10127;47.780;9.606;2023-09-19T09:40:04;19.90;99.40
19930;DHT22;10127;47.780;9.606;2023-09-19T09:42:42;19.90;99.80
19930;DHT22;10127;47.780;9.606;2023-09-19T09:45:18;20.10;99.40
19930;DHT22;10127;47.780;9.606;2023-09-19T09:48:03;20.40;98.80
19930;DHT22;10127;47.780;9.606;2023-09-19T09:50:36;20.50;98.10
19930;DHT22;10127;47.780;9.606;2023-09-19T09:53:22;20.80;97.90
19930;DHT22;10127;47.780;9.606;2023-09-19T09:56:05;20.90;97.40
19930;DHT22;10127;47.780;9.606;2023-09-19T09:58:49;21.00;96.70
19930;DHT22;10127;47.780;9.606;2023-09-19T10:01:16;20.90;97.00
19930;DHT22;10127;47.780;9.606;2023-09-19T10:03:43;20.90;97.30
19930;DHT22;10127;47.780;9.606;2023-09-19T10:06:15;20.80;97.30
19930;DHT22;10127;47.780;9.606;2023-09-19T10:09:09;20.60;97.30
19930;DHT22;10127;47.780;9.606;2023-09-19T10:12:06;20.40;97.50
19930;DHT22;10127;47.780;9.606;2023-09-19T10:14:37;20.30;97.90
19930;DHT22;10127;47.780;9.606;2023-09-19T10:17:05;20.30;97.80
19930;DHT22;10127;47.780;9.606;2023-09-19T10:19:44;20.40;97.50
19930;DHT22;10127;47.780;9.606;2023-09-19T10:22:12;20.30;97.40
19930;DHT22;10127;47.780;9.606;2023-09-19T10:24:40;20.40;97.60
19930;DHT22;10127;47.780;9.606;2023-09-19T10:27:07;20.50;97.20
19930;DHT22;10127;47.780;9.606;2023-09-19T10:29:39;20.50;97.00
19930;DHT22;10127;47.780;9.606;2023-09-19T10:32:06;20.50;97.30
19930;DHT22;10127;47.780;9.606;2023-09-19T10:34:38;20.50;97.10
19930;DHT22;10127;47.780;9.606;2023-09-19T10:37:08;20.80;96.80
19930;DHT22;10127;47.780;9.606;2023-09-19T10:39:39;21.10;96.40
19930;DHT22;10127;47.780;9.606;2023-09-19T10:42:06;21.30;95.80
19930;DHT22;10127;47.780;9.606;2023-09-19T10:44:38;21.20;95.60
19930;DHT22;10127;47.780;9.606;2023-09-19T10:47:09;21.20;95.90
19930;DHT22;10127;47.780;9.606;2023-09-19T10:49:35;21.10;96.00
19930;DHT22;10127;47.780;9.606;2023-09-19T10:52:01;21.00;96.10
19930;DHT22;10127;47.780;9.606;2023-09-19T10:54:31;21.20;96.00
19930;DHT22;10127;47.780;9.606;2023-09-19T10:56:59;21.30;96.00
19930;DHT22;10127;47.780;9.606;2023-09-19T10:59:26;21.40;96.00
19930;DHT22;10127;47.780;9.606;2023-09-19T11:02:00;21.40;96.10
19930;DHT22;10127;47.780;9.606;2023-09-19T11:04:40;21.10;96.20
19930;DHT22;10127;47.780;9.606;2023-09-19T11:07:07;20.80;96.70
19930;DHT22;10127;47.780;9.606;2023-09-19T11:09:56;20.80;97.50
19930;DHT22;10127;47.780;9.606;2023-09-19T11:15:07;20.60;97.90
19930;DHT22;10127;47.780;9.606;2023-09-19T11:17:40;20.60;97.90
19930;DHT22;10127;47.780;9.606;2023-09-19T11:30:39;20.80;98.00
19930;DHT22;10127;47.780;9.606;2023-09-19T11:33:18;20.90;97.10
19930;DHT22;10127;47.780;9.606;2023-09-19T11:36:11;20.90;97.10
19930;DHT22;10127;47.780;9.606;2023-09-19T11:43:53;21.10;96.80
19930;DHT22;10127;47.780;9.606;2023-09-19T11:46:24;21.20;96.80
19930;DHT22;10127;47.780;9.606;2023-09-19T11:48:51;21.20;96.20
19930;DHT22;10127;47.780;9.606;2023-09-19T11:51:22;21.30;96.30
19930;DHT22;10127;47.780;9.606;2023-09-19T11:53:56;21.20;96.20
19930;DHT22;10127;47.780;9.606;2023-09-19T11:56:24;21.20;96.00
19930;DHT22;10127;47.780;9.606;2023-09-19T11:58:52;21.20;96.00
19930;DHT22;10127;47.780;9.606;2023-09-19T12:01:31;21.20;96.10
19930;DHT22;10127;47.780;9.606;2023-09-19T12:03:59;21.10;96.20
19930;DHT22;10127;47.780;9.606;2023-09-19T12:06:29;21.20;96.30
19930;DHT22;10127;47.780;9.606;2023-09-19T12:08:55;21.20;96.40
19930;DHT22;10127;47.780;9.606;2023-09-19T12:11:23;21.30;96.30
19930;DHT22;10127;47.780;9.606;2023-09-19T12:13:49;21.30;96.00
19930;DHT22;10127;47.780;9.606;2023-09-19T12:16:17;21.50;95.60
19930;DHT22;10127;47.780;9.606;2023-09-19T12:18:44;21.60;95.50
19930;DHT22;10127;47.780;9.606;2023-09-19T12:21:29;21.60;95.30
19930;DHT22;10127;47.780;9.606;2023-09-19T12:26:43;21.60;95.20
19930;DHT22;10127;47.780;9.606;2023-09-19T12:29:18;21.70;94.90
19930;DHT22;10127;47.780;9.606;2023-09-19T12:31:55;21.40;95.20
19930;DHT22;10127;47.780;9.606;2023-09-19T12:34:31;21.30;95.40
19930;DHT22;10127;47.780;9.606;2023-09-19T12:37:07;21.20;95.90
19930;DHT22;10127;47.780;9.606;2023-09-19T12:39:53;21.20;95.70
19930;DHT22;10127;47.780;9.606;2023-09-19T12:42:40;21.30;95.00
19930;DHT22;10127;47.780;9.606;2023-09-19T12:45:07;21.30;95.10
19930;DHT22;10127;47.780;9.606;2023-09-19T12:47:35;21.30;95.50
19930;DHT22;10127;47.780;9.606;2023-09-19T12:52:49;21.40;95.80
19930;DHT22;10127;47.780;9.606;2023-09-19T13:00:39;21.70;95.20
19930;DHT22;10127;47.780;9.606;2023-09-19T13:03:12;21.80;95.30
19930;DHT22;10127;47.780;9.606;2023-09-19T13:05:56;22.00;94.30
19930;DHT22;10127;47.780;9.606;2023-09-19T13:11:12;22.00;93.70
19930;DHT22;10127;47.780;9.606;2023-09-19T13:17:01;22.00;93.80
19930;DHT22;10127;47.780;9.606;2023-09-19T13:19:42;22.20;93.60
19930;DHT22;10127;47.780;9.606;2023-09-19T13:22:43;22.40;93.50
19930;DHT22;10127;47.780;9.606;2023-09-19T13:25:17;22.30;92.90
19930;DHT22;10127;47.780;9.606;2023-09-19T13:27:49;22.30;93.30
19930;DHT22;10127;47.780;9.606;2023-09-19T13:30:17;22.40;92.90
19930;DHT22;10127;47.780;9.606;2023-09-19T13:32:43;22.50;92.80
19930;DHT22;10127;47.780;9.606;2023-09-19T13:35:09;22.50;92.70
19930;DHT22;10127;47.780;9.606;2023-09-19T13:37:35;22.50;92.90
19930;DHT22;10127;47.780;9.606;2023-09-19T13:40:03;22.50;92.60
19930;DHT22;10127;47.780;9.606;2023-09-19T13:42:30;22.40;93.10
19930;DHT22;10127;47.780;9.606;2023-09-19T13:44:57;22.60;92.40
19930;DHT22;10127;47.780;9.606;2023-09-19T13:47:22;22.80;92.20
19930;DHT22;10127;47.780;9.606;2023-09-19T13:49:50;22.90;91.90
19930;DHT22;10127;47.780;9.606;2023-09-19T13:52:20;22.90;92.10
19930;DHT22;10127;47.780;9.606;2023-09-19T13:54:47;22.90;91.60
19930;DHT22;10127;47.780;9.606;2023-09-19T13:57:12;23.00;92.00
19930;DHT22;10127;47.780;9.606;2023-09-19T13:59:39;23.00;91.20
19930;DHT22;10127;47.780;9.606;2023-09-19T14:02:05;23.00;91.60
19930;DHT22;10127;47.780;9.606;2023-09-19T14:04:32;23.00;91.40
19930;DHT22;10127;47.780;9.606;2023-09-19T14:07:00;23.10;91.10
19930;DHT22;10127;47.780;9.606;2023-09-19T14:09:33;23.20;91.00
19930;DHT22;10127;47.780;9.606;2023-09-19T14:12:05;23.30;90.60
19930;DHT22;10127;47.780;9.606;2023-09-19T14:14:30;23.30;90.80
19930;DHT22;10127;47.780;9.606;2023-09-19T14:16:56;23.40;90.60
19930;DHT22;10127;47.780;9.606;2023-09-19T14:19:22;23.40;90.70
19930;DHT22;10127;47.780;9.606;2023-09-19T14:21:47;23.50;90.00
19930;DHT22;10127;47.780;9.606;2023-09-19T14:24:17;23.40;90.10
19930;DHT22;10127;47.780;9.606;2023-09-19T14:26:43;23.30;90.50
19930;DHT22;10127;47.780;9.606;2023-09-19T14:29:08;23.20;90.60
19930;DHT22;10127;47.780;9.606;2023-09-19T14:31:37;23.10;90.80
19930;DHT22;10127;47.780;9.606;2023-09-19T14:34:03;23.30;90.70
19930;DHT22;10127;47.780;9.606;2023-09-19T14:36:29;23.30;90.60
19930;DHT22;10127;47.780;9.606;2023-09-19T14:38:56;23.20;91.20
19930;DHT22;10127;47.780;9.606;2023-09-19T14:41:25;23.30;91.20
19930;DHT22;10127;47.780;9.606;2023-09-19T14:43:52;23.40;90.80
19930;DHT22;10127;47.780;9.606;2023-09-19T14:46:18;23.40;90.40
19930;DHT22;10127;47.780;9.606;2023-09-19T14:48:45;23.30;90.40
19930;DHT22;10127;47.780;9.606;2023-09-19T14:51:12;23.30;90.80
19930;DHT22;10127;47.780;9.606;2023-09-19T14:53:39;23.40;90.70
19930;DHT22;10127;47.780;9.606;2023-09-19T14:56:06;23.30;90.70
19930;DHT22;10127;47.780;9.606;2023-09-19T14:58:39;23.50;90.60
19930;DHT22;10127;47.780;9.606;2023-09-19T15:01:13;23.60;90.40
19930;DHT22;10127;47.780;9.606;2023-09-19T15:03:45;23.40;90.90
19930;DHT22;10127;47.780;9.606;2023-09-19T15:06:19;23.50;90.60
19930;DHT22;10127;47.780;9.606;2023-09-19T15:08:46;23.60;90.70
19930;DHT22;10127;47.780;9.606;2023-09-19T15:11:19;23.60;90.10
19930;DHT22;10127;47.780;9.606;2023-09-19T15:13:46;23.50;90.20
19930;DHT22;10127;47.780;9.606;2023-09-19T15:16:12;23.40;90.40
19930;DHT22;10127;47.780;9.606;2023-09-19T15:18:41;23.50;90.40
19930;DHT22;10127;47.780;9.606;2023-09-19T15:21:08;23.60;90.10
19930;DHT22;10127;47.780;9.606;2023-09-19T15:23:35;23.50;90.40
19930;DHT22;10127;47.780;9.606;2023-09-19T15:26:02;23.60;90.10
19930;DHT22;10127;47.780;9.606;2023-09-19T15:28:28;23.60;90.10
19930;DHT22;10127;47.780;9.606;2023-09-19T15:31:01;23.50;90.40
19930;DHT22;10127;47.780;9.606;2023-09-19T15:33:27;23.50;90.40
19930;DHT22;10127;47.780;9.606;2023-09-19T15:36:11;23.50;90.20
19930;DHT22;10127;47.780;9.606;2023-09-19T15:41:26;23.80;89.90
19930;DHT22;10127;47.780;9.606;2023-09-19T15:43:52;23.80;90.10
19930;DHT22;10127;47.780;9.606;2023-09-19T15:46:19;23.60;90.40
19930;DHT22;10127;47.780;9.606;2023-09-19T15:48:45;23.50;90.50
19930;DHT22;10127;47.780;9.606;2023-09-19T15:51:11;23.50;90.10
19930;DHT22;10127;47.780;9.606;2023-09-19T15:53:45;23.40;90.30
19930;DHT22;10127;47.780;9.606;2023-09-19T15:56:11;23.30;90.70
19930;DHT22;10127;47.780;9.606;2023-09-19T15:58:37;23.30;90.20
19930;DHT22;10127;47.780;9.606;2023-09-19T16:01:08;23.30;90.50
19930;DHT22;10127;47.780;9.606;2023-09-19T16:03:37;23.30;90.40
19930;DHT22;10127;47.780;9.606;2023-09-19T16:06:11;23.30;90.30
19930;DHT22;10127;47.780;9.606;2023-09-19T16:08:43;23.20;90.70
19930;DHT22;10127;47.780;9.606;2023-09-19T16:11:10;23.00;91.00
19930;DHT22;10127;47.780;9.606;2023-09-19T16:13:37;23.20;90.90
19930;DHT22;10127;47.780;9.606;2023-09-19T16:16:04;23.10;90.80
19930;DHT22;10127;47.780;9.606;2023-09-19T16:18:30;23.00;91.10
19930;DHT22;10127;47.780;9.606;2023-09-19T16:21:02;22.90;91.30
19930;DHT22;10127;47.780;9.606;2023-09-19T16:23:28;22.90;91.20
19930;DHT22;10127;47.780;9.606;2023-09-19T16:26:09;22.90;91.30
19930;DHT22;10127;47.780;9.606;2023-09-19T16:28:36;22.80;91.40
19930;DHT22;10127;47.780;9.606;2023-09-19T16:31:06;22.70;91.60
19930;DHT22;10127;47.780;9.606;2023-09-19T16:33:33;22.80;91.60